sensor_id;sensor_type;location;lat;lon;timestamp;pressure;altitude;pressure_sealevel;temperature;humidity
71778;BME280;59609;52.430;4.668;2022-09-27T00:01:51;99844.00;;;10.33;100.00
71778;BME280;59609;52.430;4.668;2022-09-27T00:04:16;99847.31;;;10.43;100.00
71778;BME280;59609;52.430;4.668;2022-09-27T00:06:41;99843.69;;;10.43;100.00
71778;BME280;59609;52.430;4.668;2022-09-27T00:09:08;99847.31;;;10.43;100.00
71778;BME280;59609;52.430;4.668;2022-09-27T00:11:36;99852.44;;;10.46;100.00
71778;BME280;59609;52.430;4.668;2022-09-27T00:14:05;99837.03;;;10.66;98.90
71778;BME280;59609;52.430;4.668;2022-09-27T00:16:34;99832.72;;;10.78;97.79
71778;BME280;59609;52.430;4.668;2022-09-27T00:19:04;99843.47;;;10.73;99.27
71778;BME280;59609;52.430;4.668;2022-09-27T00:21:30;99840.59;;;10.81;96.73
71778;BME280;59609;52.430;4.668;2022-09-27T00:23:57;99845.56;;;10.71;96.86
71778;BME280;59609;52.430;4.668;2022-09-27T00:26:24;99855.63;;;10.64;97.70
71778;BME280;59609;52.430;4.668;2022-09-27T00:28:49;99851.28;;;10.70;95.06
71778;BME280;59609;52.430;4.668;2022-09-27T00:31:23;99856.50;;;10.65;95.61
71778;BME280;59609;52.430;4.668;2022-09-27T00:33:51;99861.81;;;10.66;92.96
71778;BME280;59609;52.430;4.668;2022-09-27T00:36:18;99860.41;;;10.70;91.53
71778;BME280;59609;52.430;4.668;2022-09-27T00:38:44;99859.94;;;10.67;90.88
71778;BME280;59609;52.430;4.668;2022-09-27T00:41:19;99865.22;;;10.68;91.18
71778;BME280;59609;52.430;4.668;2022-09-27T00:43:48;99859.88;;;10.81;89.41
71778;BME280;59609;52.430;4.668;2022-09-27T00:46:22;99860.31;;;10.64;91.96
71778;BME280;59609;52.430;4.668;2022-09-27T00:48:58;99849.06;;;10.80;88.55
71778;BME280;59609;52.430;4.668;2022-09-27T00:51:27;99853.72;;;10.79;89.22
71778;BME280;59609;52.430;4.668;2022-09-27T00:53:54;99856.75;;;10.84;87.31
71778;BME280;59609;52.430;4.668;2022-09-27T00:56:23;99851.97;;;10.57;89.28
71778;BME280;59609;52.430;4.668;2022-09-27T00:58:56;99855.16;;;10.75;87.63
71778;BME280;59609;52.430;4.668;2022-09-27T01:01:23;99861.34;;;10.63;89.15
71778;BME280;59609;52.430;4.668;2022-09-27T01:04:06;99853.38;;;10.53;90.70
71778;BME280;59609;52.430;4.668;2022-09-27T01:06:32;99863.34;;;10.69;89.72
71778;BME280;59609;52.430;4.668;2022-09-27T01:08:57;99865.41;;;10.81;89.64
71778;BME280;59609;52.430;4.668;2022-09-27T01:11:45;99867.59;;;10.86;90.32
71778;BME280;59609;52.430;4.668;2022-09-27T01:33:16;99872.66;;;10.53;92.55
71778;BME280;59609;52.430;4.668;2022-09-27T01:36:10;99880.06;;;10.53;91.65
71778;BME280;59609;52.430;4.668;2022-09-27T01:41:46;99873.69;;;10.52;88.75
71778;BME280;59609;52.430;4.668;2022-09-27T01:44:32;99865.16;;;10.47;84.00
71778;BME280;59609;52.430;4.668;2022-09-27T01:47:22;99864.28;;;10.32;85.66
71778;BME280;59609;52.430;4.668;2022-09-27T01:49:55;99860.31;;;10.20;87.21
71778;BME280;59609;52.430;4.668;2022-09-27T01:52:28;99868.75;;;10.18;89.03
71778;BME280;59609;52.430;4.668;2022-09-27T01:54:58;99864.13;;;10.11;90.37
71778;BME280;59609;52.430;4.668;2022-09-27T01:57:33;99863.53;;;10.38;90.62
71778;BME280;59609;52.430;4.668;2022-09-27T02:00:06;99853.28;;;10.32;92.01
71778;BME280;59609;52.430;4.668;2022-09-27T02:02:36;99856.13;;;10.39;92.88
71778;BME280;59609;52.430;4.668;2022-09-27T02:05:06;99863.44;;;10.46;93.96
71778;BME280;59609;52.430;4.668;2022-09-27T02:08:01;99858.22;;;10.66;90.53
71778;BME280;59609;52.430;4.668;2022-09-27T02:10:36;99856.78;;;10.70;88.34
71778;BME280;59609;52.430;4.668;2022-09-27T02:16:06;99864.66;;;10.58;94.28
71778;BME280;59609;52.430;4.668;2022-09-27T02:18:49;99870.19;;;10.29;94.24
71778;BME280;59609;52.430;4.668;2022-09-27T02:21:18;99862.59;;;10.16;98.01
71778;BME280;59609;52.430;4.668;2022-09-27T02:23:52;99868.03;;;10.02;100.00
71778;BME280;59609;52.430;4.668;2022-09-27T02:26:23;99850.97;;;10.06;98.69
71778;BME280;59609;52.430;4.668;2022-09-27T02:31:17;99855.19;;;10.31;95.66
71778;BME280;59609;52.430;4.668;2022-09-27T02:33:48;99855.38;;;10.45;94.60
71778;BME280;59609;52.430;4.668;2022-09-27T02:36:15;99847.97;;;10.60;93.05
71778;BME280;59609;52.430;4.668;2022-09-27T02:38:42;99840.28;;;10.41;93.53
71778;BME280;59609;52.430;4.668;2022-09-27T02:41:16;99849.22;;;10.43;93.23
71778;BME280;59609;52.430;4.668;2022-09-27T02:43:45;99840.06;;;10.27;94.98
71778;BME280;59609;52.430;4.668;2022-09-27T02:46:18;99855.66;;;10.35;94.65
71778;BME280;59609;52.430;4.668;2022-09-27T02:52:12;99851.22;;;10.34;88.95
71778;BME280;59609;52.430;4.668;2022-09-27T02:54:43;99851.75;;;10.15;90.98
71778;BME280;59609;52.430;4.668;2022-09-27T02:59:52;99846.50;;;10.05;91.84
71778;BME280;59609;52.430;4.668;2022-09-27T03:05:01;99863.81;;;10.14;94.31
71778;BME280;59609;52.430;4.668;2022-09-27T03:07:28;99870.34;;;10.13;94.06
71778;BME280;59609;52.430;4.668;2022-09-27T03:09:54;99865.13;;;10.18;94.92
71778;BME280;59609;52.430;4.668;2022-09-27T03:12:20;99863.81;;;10.14;96.98
71778;BME280;59609;52.430;4.668;2022-09-27T03:14:57;99865.63;;;10.21;96.47
71778;BME280;59609;52.430;4.668;2022-09-27T03:17:24;99875.75;;;10.21;97.92
71778;BME280;59609;52.430;4.668;2022-09-27T03:19:50;99869.22;;;10.22;98.52
71778;BME280;59609;52.430;4.668;2022-09-27T03:22:15;99873.59;;;10.16;100.00
71778;BME280;59609;52.430;4.668;2022-09-27T03:24:41;99875.16;;;10.11;99.97
71778;BME280;59609;52.430;4.668;2022-09-27T03:27:07;99859.13;;;10.00;100.00
71778;BME280;59609;52.430;4.668;2022-09-27T03:29:33;99869.16;;;9.93;100.00
71778;BME280;59609;52.430;4.668;2022-09-27T03:31:58;99857.50;;;9.91;100.00
71778;BME280;59609;52.430;4.668;2022-09-27T03:34:23;99855.19;;;9.79;100.00
71778;BME280;59609;52.430;4.668;2022-09-27T03:36:49;99853.28;;;9.80;100.00
71778;BME280;59609;52.430;4.668;2022-09-27T03:39:15;99855.56;;;9.76;100.00
71778;BME280;59609;52.430;4.668;2022-09-27T03:41:40;99857.25;;;9.77;100.00
71778;BME280;59609;52.430;4.668;2022-09-27T03:44:06;99858.69;;;9.73;100.00
71778;BME280;59609;52.430;4.668;2022-09-27T03:46:32;99856.03;;;9.80;100.00
71778;BME280;59609;52.430;4.668;2022-09-27T03:48:57;99860.56;;;9.73;100.00
71778;BME280;59609;52.430;4.668;2022-09-27T03:51:23;99848.22;;;9.69;100.00
71778;BME280;59609;52.430;4.668;2022-09-27T03:53:48;99840.56;;;9.79;98.92
71778;BME280;59609;52.430;4.668;2022-09-27T03:56:14;99833.78;;;9.90;97.05
71778;BME280;59609;52.430;4.668;2022-09-27T03:58:39;99852.94;;;9.98;96.58
71778;BME280;59609;52.430;4.668;2022-09-27T04:01:05;99853.69;;;9.92;97.07
71778;BME280;59609;52.430;4.668;2022-09-27T04:03:30;99857.31;;;10.07;93.66
71778;BME280;59609;52.430;4.668;2022-09-27T04:05:55;99861.00;;;9.99;94.98
71778;BME280;59609;52.430;4.668;2022-09-27T04:08:21;99864.41;;;10.01;97.80
71778;BME280;59609;52.430;4.668;2022-09-27T04:10:47;99863.06;;;10.20;96.09
71778;BME280;59609;52.430;4.668;2022-09-27T04:13:12;99884.06;;;9.98;99.05
71778;BME280;59609;52.430;4.668;2022-09-27T04:15:38;99879.25;;;9.77;100.00
71778;BME280;59609;52.430;4.668;2022-09-27T04:18:04;99849.91;;;9.55;100.00
71778;BME280;59609;52.430;4.668;2022-09-27T04:20:29;99867.13;;;9.49;100.00
71778;BME280;59609;52.430;4.668;2022-09-27T04:22:55;99870.63;;;9.43;100.00
71778;BME280;59609;52.430;4.668;2022-09-27T04:25:20;99869.66;;;9.36;100.00
71778;BME280;59609;52.430;4.668;2022-09-27T04:27:46;99863.16;;;9.29;100.00
71778;BME280;59609;52.430;4.668;2022-09-27T04:30:13;99855.34;;;9.18;100.00
71778;BME280;59609;52.430;4.668;2022-09-27T04:32:43;99850.94;;;9.09;100.00
71778;BME280;59609;52.430;4.668;2022-09-27T04:35:10;99854.91;;;9.06;100.00
71778;BME280;59609;52.430;4.668;2022-09-27T04:37:54;99851.47;;;9.04;100.00
71778;BME280;59609;52.430;4.668;2022-09-27T04:40:19;99853.03;;;9.07;100.00
71778;BME280;59609;52.430;4.668;2022-09-27T04:42:50;99845.41;;;9.17;100.00
71778;BME280;59609;52.430;4.668;2022-09-27T04:45:15;99850.94;;;9.31;100.00
71778;BME280;59609;52.430;4.668;2022-09-27T04:47:50;99846.31;;;9.32;100.00
71778;BME280;59609;52.430;4.668;2022-09-27T04:50:16;99844.13;;;9.50;100.00
71778;BME280;59609;52.430;4.668;2022-09-27T04:52:42;99833.63;;;9.68;98.00
71778;BME280;59609;52.430;4.668;2022-09-27T04:55:09;99864.09;;;9.81;99.30
71778;BME280;59609;52.430;4.668;2022-09-27T04:57:35;99847.09;;;9.78;99.10
71778;BME280;59609;52.430;4.668;2022-09-27T05:00:01;99852.91;;;9.83;100.00
71778;BME280;59609;52.430;4.668;2022-09-27T05:02:27;99850.06;;;9.76;100.00
71778;BME280;59609;52.430;4.668;2022-09-27T05:04:53;99846.84;;;9.88;100.00
71778;BME280;59609;52.430;4.668;2022-09-27T05:07:23;99853.09;;;9.81;100.00
71778;BME280;59609;52.430;4.668;2022-09-27T05:09:48;99849.19;;;9.76;100.00
71778;BME280;59609;52.430;4.668;2022-09-27T05:12:14;99836.22;;;9.84;100.00
71778;BME280;59609;52.430;4.668;2022-09-27T05:14:39;99845.31;;;9.85;100.00
71778;BME280;59609;52.430;4.668;2022-09-27T05:17:05;99849.41;;;9.89;100.00
71778;BME280;59609;52.430;4.668;2022-09-27T05:19:32;99835.31;;;10.07;94.78
71778;BME280;59609;52.430;4.668;2022-09-27T05:21:58;99840.13;;;10.05;94.25
71778;BME280;59609;52.430;4.668;2022-09-27T05:24:24;99849.53;;;9.96;93.54
71778;BME280;59609;52.430;4.668;2022-09-27T05:26:49;99853.75;;;10.21;93.01
71778;BME280;59609;52.430;4.668;2022-09-27T05:29:15;99855.84;;;10.19;94.09
71778;BME280;59609;52.430;4.668;2022-09-27T05:31:41;99864.50;;;10.30;98.77
71778;BME280;59609;52.430;4.668;2022-09-27T05:34:07;99865.84;;;10.12;99.59
71778;BME280;59609;52.430;4.668;2022-09-27T05:36:33;99876.38;;;9.94;100.00
71778;BME280;59609;52.430;4.668;2022-09-27T05:38:59;99865.22;;;9.72;100.00
71778;BME280;59609;52.430;4.668;2022-09-27T05:41:24;99865.53;;;9.55;100.00
71778;BME280;59609;52.430;4.668;2022-09-27T05:43:50;99879.16;;;9.48;100.00
71778;BME280;59609;52.430;4.668;2022-09-27T05:46:16;99867.03;;;9.43;100.00
71778;BME280;59609;52.430;4.668;2022-09-27T05:48:41;99855.38;;;9.41;100.00
71778;BME280;59609;52.430;4.668;2022-09-27T05:51:07;99861.56;;;9.35;100.00
71778;BME280;59609;52.430;4.668;2022-09-27T05:53:32;99869.16;;;9.32;100.00
71778;BME280;59609;52.430;4.668;2022-09-27T05:56:02;99873.44;;;9.35;100.00
71778;BME280;59609;52.430;4.668;2022-09-27T05:58:28;99871.13;;;9.47;100.00
71778;BME280;59609;52.430;4.668;2022-09-27T06:00:54;99875.66;;;9.54;100.00
71778;BME280;59609;52.430;4.668;2022-09-27T06:03:19;99877.28;;;9.49;100.00
71778;BME280;59609;52.430;4.668;2022-09-27T06:05:44;99868.97;;;9.57;100.00
71778;BME280;59609;52.430;4.668;2022-09-27T06:08:11;99872.97;;;9.69;100.00
71778;BME280;59609;52.430;4.668;2022-09-27T06:10:38;99875.47;;;9.78;100.00
71778;BME280;59609;52.430;4.668;2022-09-27T06:13:10;99873.44;;;9.95;100.00
71778;BME280;59609;52.430;4.668;2022-09-27T06:15:37;99878.75;;;9.97;100.00
71778;BME280;59609;52.430;4.668;2022-09-27T06:18:05;99891.66;;;9.96;100.00
71778;BME280;59609;52.430;4.668;2022-09-27T06:20:32;99884.31;;;9.89;100.00
71778;BME280;59609;52.430;4.668;2022-09-27T06:23:06;99877.25;;;9.71;100.00
71778;BME280;59609;52.430;4.668;2022-09-27T06:25:33;99889.59;;;9.75;100.00
71778;BME280;59609;52.430;4.668;2022-09-27T06:27:59;99896.81;;;9.76;100.00
71778;BME280;59609;52.430;4.668;2022-09-27T06:30:24;99893.22;;;9.76;100.00
71778;BME280;59609;52.430;4.668;2022-09-27T06:32:59;99891.97;;;9.78;100.00
71778;BME280;59609;52.430;4.668;2022-09-27T06:35:25;99884.63;;;9.71;100.00
71778;BME280;59609;52.430;4.668;2022-09-27T06:37:51;99884.75;;;9.77;100.00
71778;BME280;59609;52.430;4.668;2022-09-27T06:40:17;99889.91;;;9.80;100.00
71778;BME280;59609;52.430;4.668;2022-09-27T06:42:42;99888.00;;;9.81;100.00
71778;BME280;59609;52.430;4.668;2022-09-27T06:45:08;99878.53;;;9.83;100.00
71778;BME280;59609;52.430;4.668;2022-09-27T06:47:37;99882.81;;;9.86;100.00
71778;BME280;59609;52.430;4.668;2022-09-27T06:50:04;99880.53;;;9.90;100.00
71778;BME280;59609;52.430;4.668;2022-09-27T06:52:34;99881.56;;;9.89;100.00
71778;BME280;59609;52.430;4.668;2022-09-27T06:55:02;99893.72;;;9.94;100.00
71778;BME280;59609;52.430;4.668;2022-09-27T06:57:28;99890.63;;;9.97;100.00
71778;BME280;59609;52.430;4.668;2022-09-27T07:00:12;99901.75;;;10.04;100.00
71778;BME280;59609;52.430;4.668;2022-09-27T07:02:55;99896.22;;;10.04;100.00
71778;BME280;59609;52.430;4.668;2022-09-27T07:05:26;99902.22;;;10.07;100.00
71778;BME280;59609;52.430;4.668;2022-09-27T07:07:51;99904.91;;;10.15;100.00
71778;BME280;59609;52.430;4.668;2022-09-27T07:10:26;99907.22;;;10.26;100.00
71778;BME280;59609;52.430;4.668;2022-09-27T07:12:53;99898.47;;;10.38;100.00
71778;BME280;59609;52.430;4.668;2022-09-27T07:15:19;99903.81;;;10.54;100.00
71778;BME280;59609;52.430;4.668;2022-09-27T07:17:58;99912.06;;;10.68;98.15
71778;BME280;59609;52.430;4.668;2022-09-27T07:20:27;99922.22;;;10.68;97.03
71778;BME280;59609;52.430;4.668;2022-09-27T07:22:54;99923.38;;;10.59;96.20
71778;BME280;59609;52.430;4.668;2022-09-27T07:25:20;99925.16;;;10.37;96.67
71778;BME280;59609;52.430;4.668;2022-09-27T07:27:45;99924.38;;;10.14;99.43
71778;BME280;59609;52.430;4.668;2022-09-27T07:30:11;99926.03;;;10.00;100.00
71778;BME280;59609;52.430;4.668;2022-09-27T07:32:38;99935.97;;;10.01;100.00
71778;BME280;59609;52.430;4.668;2022-09-27T07:35:05;99927.41;;;9.96;100.00
71778;BME280;59609;52.430;4.668;2022-09-27T07:37:32;99928.94;;;9.99;100.00
71778;BME280;59609;52.430;4.668;2022-09-27T07:39:59;99938.81;;;10.08;100.00
71778;BME280;59609;52.430;4.668;2022-09-27T07:42:25;99936.06;;;10.08;100.00
71778;BME280;59609;52.430;4.668;2022-09-27T07:44:51;99941.88;;;10.13;100.00
71778;BME280;59609;52.430;4.668;2022-09-27T07:47:16;99936.56;;;10.11;100.00
71778;BME280;59609;52.430;4.668;2022-09-27T07:49:43;99929.50;;;10.17;100.00
71778;BME280;59609;52.430;4.668;2022-09-27T07:52:08;99938.78;;;10.16;100.00
71778;BME280;59609;52.430;4.668;2022-09-27T07:54:34;99943.78;;;10.12;100.00
71778;BME280;59609;52.430;4.668;2022-09-27T07:56:59;99933.69;;;10.05;100.00
71778;BME280;59609;52.430;4.668;2022-09-27T07:59:27;99949.66;;;10.09;100.00
71778;BME280;59609;52.430;4.668;2022-09-27T08:01:52;99947.47;;;10.05;100.00
71778;BME280;59609;52.430;4.668;2022-09-27T08:04:17;99937.75;;;9.94;100.00
71778;BME280;59609;52.430;4.668;2022-09-27T08:06:43;99962.28;;;10.04;100.00
71778;BME280;59609;52.430;4.668;2022-09-27T08:09:08;99955.59;;;9.98;100.00
71778;BME280;59609;52.430;4.668;2022-09-27T08:11:34;99965.38;;;10.01;100.00
71778;BME280;59609;52.430;4.668;2022-09-27T08:14:01;99956.28;;;10.00;100.00
71778;BME280;59609;52.430;4.668;2022-09-27T08:16:28;99948.94;;;9.93;100.00
71778;BME280;59609;52.430;4.668;2022-09-27T08:18:54;99951.50;;;9.94;100.00
71778;BME280;59609;52.430;4.668;2022-09-27T08:21:19;99948.03;;;10.00;100.00
71778;BME280;59609;52.430;4.668;2022-09-27T08:23:44;99948.56;;;9.96;100.00
71778;BME280;59609;52.430;4.668;2022-09-27T08:26:10;99947.91;;;9.94;100.00
71778;BME280;59609;52.430;4.668;2022-09-27T08:28:35;99952.34;;;9.95;100.00
71778;BME280;59609;52.430;4.668;2022-09-27T08:31:00;99951.38;;;9.88;100.00
71778;BME280;59609;52.430;4.668;2022-09-27T08:33:26;99962.38;;;9.88;100.00
71778;BME280;59609;52.430;4.668;2022-09-27T08:35:51;99947.47;;;9.82;100.00
71778;BME280;59609;52.430;4.668;2022-09-27T08:38:17;99952.97;;;9.82;100.00
71778;BME280;59609;52.430;4.668;2022-09-27T08:48:43;99982.47;;;9.73;100.00
71778;BME280;59609;52.430;4.668;2022-09-27T08:51:14;99988.50;;;9.69;100.00
71778;BME280;59609;52.430;4.668;2022-09-27T08:53:46;100023.03;;;9.71;100.00
71778;BME280;59609;52.430;4.668;2022-09-27T08:56:14;100004.56;;;9.57;100.00
71778;BME280;59609;52.430;4.668;2022-09-27T08:59:03;100033.22;;;9.32;100.00
71778;BME280;59609;52.430;4.668;2022-09-27T09:01:32;100018.91;;;9.06;100.00
71778;BME280;59609;52.430;4.668;2022-09-27T09:04:00;100022.22;;;8.93;100.00
71778;BME280;59609;52.430;4.668;2022-09-27T09:09:36;100018.25;;;8.96;100.00
71778;BME280;59609;52.430;4.668;2022-09-27T09:15:41;100000.09;;;8.87;100.00
71778;BME280;59609;52.430;4.668;2022-09-27T09:18:55;99986.16;;;8.88;100.00
71778;BME280;59609;52.430;4.668;2022-09-27T09:26:34;99987.78;;;9.13;100.00
71778;BME280;59609;52.430;4.668;2022-09-27T09:31:40;99970.47;;;9.44;100.00
71778;BME280;59609;52.430;4.668;2022-09-27T09:34:22;99964.72;;;9.53;100.00
71778;BME280;59609;52.430;4.668;2022-09-27T09:36:57;99961.13;;;9.75;100.00
71778;BME280;59609;52.430;4.668;2022-09-27T09:39:31;99949.38;;;9.81;100.00
71778;BME280;59609;52.430;4.668;2022-09-27T09:42:02;99956.06;;;9.87;100.00
71778;BME280;59609;52.430;4.668;2022-09-27T09:44:54;99962.84;;;9.76;100.00
71778;BME280;59609;52.430;4.668;2022-09-27T09:47:25;99963.06;;;9.90;100.00
71778;BME280;59609;52.430;4.668;2022-09-27T09:49:53;99958.97;;;9.86;100.00
71778;BME280;59609;52.430;4.668;2022-09-27T09:52:22;99969.56;;;9.97;100.00
71778;BME280;59609;52.430;4.668;2022-09-27T09:55:19;99968.72;;;10.11;100.00
71778;BME280;59609;52.430;4.668;2022-09-27T10:00:26;99961.84;;;9.92;100.00
71778;BME280;59609;52.430;4.668;2022-09-27T10:02:54;99951.47;;;9.79;100.00
71778;BME280;59609;52.430;4.668;2022-09-27T10:05:23;99970.97;;;9.93;100.00
71778;BME280;59609;52.430;4.668;2022-09-27T10:07:52;99976.50;;;9.84;100.00
71778;BME280;59609;52.430;4.668;2022-09-27T10:10:19;99974.38;;;9.72;100.00
71778;BME280;59609;52.430;4.668;2022-09-27T10:12:46;99979.38;;;9.68;100.00
71778;BME280;59609;52.430;4.668;2022-09-27T10:15:21;99974.50;;;9.56;100.00
71778;BME280;59609;52.430;4.668;2022-09-27T10:17:51;99970.88;;;9.55;100.00
71778;BME280;59609;52.430;4.668;2022-09-27T10:20:49;99976.22;;;9.57;100.00
71778;BME280;59609;52.430;4.668;2022-09-27T10:23:17;99973.63;;;9.55;100.00
71778;BME280;59609;52.430;4.668;2022-09-27T10:28:32;99968.13;;;9.55;100.00
71778;BME280;59609;52.430;4.668;2022-09-27T10:31:03;99960.69;;;9.64;100.00
71778;BME280;59609;52.430;4.668;2022-09-27T10:33:30;99956.47;;;9.76;100.00
71778;BME280;59609;52.430;4.668;2022-09-27T10:35:56;99947.81;;;9.87;100.00
71778;BME280;59609;52.430;4.668;2022-09-27T10:38:27;99937.94;;;9.93;100.00
71778;BME280;59609;52.430;4.668;2022-09-27T10:40:55;99942.16;;;10.03;100.00
71778;BME280;59609;52.430;4.668;2022-09-27T10:43:34;99932.28;;;10.09;100.00
71778;BME280;59609;52.430;4.668;2022-09-27T10:48:28;99972.19;;;9.90;100.00
71778;BME280;59609;52.430;4.668;2022-09-27T10:50:59;99972.44;;;9.80;100.00
71778;BME280;59609;52.430;4.668;2022-09-27T10:53:27;99982.88;;;9.85;100.00
71778;BME280;59609;52.430;4.668;2022-09-27T10:55:53;99978.66;;;9.97;100.00
71778;BME280;59609;52.430;4.668;2022-09-27T10:58:40;99976.03;;;10.04;100.00
71778;BME280;59609;52.430;4.668;2022-09-27T11:01:07;99989.84;;;9.96;100.00
71778;BME280;59609;52.430;4.668;2022-09-27T11:03:45;99988.22;;;9.87;100.00
71778;BME280;59609;52.430;4.668;2022-09-27T11:08:51;99970.22;;;9.99;100.00
71778;BME280;59609;52.430;4.668;2022-09-27T11:11:25;99976.81;;;10.12;100.00
71778;BME280;59609;52.430;4.668;2022-09-27T11:30:55;99956.28;;;10.23;100.00
71778;BME280;59609;52.430;4.668;2022-09-27T11:33:47;99947.56;;;10.11;100.00
71778;BME280;59609;52.430;4.668;2022-09-27T11:47:23;99941.47;;;10.01;100.00
71778;BME280;59609;52.430;4.668;2022-09-27T11:50:11;99945.34;;;9.92;100.00
71778;BME280;59609;52.430;4.668;2022-09-27T11:58:16;99943.13;;;9.65;100.00
71778;BME280;59609;52.430;4.668;2022-09-27T12:01:08;99989.72;;;9.66;100.00
71778;BME280;59609;52.430;4.668;2022-09-27T12:04:14;99992.88;;;9.55;100.00
71778;BME280;59609;52.430;4.668;2022-09-27T12:09:19;99980.59;;;9.43;100.00
71778;BME280;59609;52.430;4.668;2022-09-27T12:11:50;99984.25;;;9.58;100.00
71778;BME280;59609;52.430;4.668;2022-09-27T12:14:28;99979.75;;;9.65;100.00
71778;BME280;59609;52.430;4.668;2022-09-27T12:16:58;99971.94;;;9.77;100.00
71778;BME280;59609;52.430;4.668;2022-09-27T12:19:31;99965.38;;;9.78;100.00
71778;BME280;59609;52.430;4.668;2022-09-27T12:22:00;99958.50;;;9.82;100.00
71778;BME280;59609;52.430;4.668;2022-09-27T12:24:29;99961.78;;;9.77;100.00
71778;BME280;59609;52.430;4.668;2022-09-27T12:27:02;99970.47;;;9.66;100.00
71778;BME280;59609;52.430;4.668;2022-09-27T12:29:36;99942.09;;;9.43;100.00
71778;BME280;59609;52.430;4.668;2022-09-27T12:40:12;99943.75;;;9.52;100.00
71778;BME280;59609;52.430;4.668;2022-09-27T12:42:59;99943.75;;;9.75;100.00
71778;BME280;59609;52.430;4.668;2022-09-27T12:50:53;99942.94;;;10.49;100.00
71778;BME280;59609;52.430;4.668;2022-09-27T12:53:27;99949.88;;;10.60;100.00
71778;BME280;59609;52.430;4.668;2022-09-27T12:59:04;99951.56;;;10.46;100.00
71778;BME280;59609;52.430;4.668;2022-09-27T13:04:45;99957.06;;;10.46;100.00
71778;BME280;59609;52.430;4.668;2022-09-27T13:12:51;99933.41;;;11.10;100.00
71778;BME280;59609;52.430;4.668;2022-09-27T13:15:27;99931.97;;;11.50;100.00
71778;BME280;59609;52.430;4.668;2022-09-27T13:17:56;99921.09;;;11.63;100.00
71778;BME280;59609;52.430;4.668;2022-09-27T13:22:59;99911.56;;;11.66;100.00
71778;BME280;59609;52.430;4.668;2022-09-27T13:30:53;99921.63;;;11.95;93.58
71778;BME280;59609;52.430;4.668;2022-09-27T13:38:38;99914.47;;;12.00;92.42
71778;BME280;59609;52.430;4.668;2022-09-27T13:41:17;99915.38;;;12.07;91.69
71778;BME280;59609;52.430;4.668;2022-09-27T13:46:51;99911.56;;;12.08;86.39
71778;BME280;59609;52.430;4.668;2022-09-27T13:49:35;99908.94;;;12.00;89.50
71778;BME280;59609;52.430;4.668;2022-09-27T13:52:18;99911.91;;;11.99;90.16
71778;BME280;59609;52.430;4.668;2022-09-27T13:54:56;99910.19;;;11.98;88.61
71778;BME280;59609;52.430;4.668;2022-09-27T14:00:23;99900.78;;;11.92;88.44
71778;BME280;59609;52.430;4.668;2022-09-27T14:02:55;99889.69;;;11.85;85.46
71778;BME280;59609;52.430;4.668;2022-09-27T14:05:27;99898.94;;;11.99;88.06
71778;BME280;59609;52.430;4.668;2022-09-27T14:07:54;99903.25;;;12.08;86.70
71778;BME280;59609;52.430;4.668;2022-09-27T14:10:24;99903.09;;;12.10;84.39
71778;BME280;59609;52.430;4.668;2022-09-27T14:12:52;99888.44;;;12.37;85.96
71778;BME280;59609;52.430;4.668;2022-09-27T14:15:29;99893.25;;;12.63;83.75
71778;BME280;59609;52.430;4.668;2022-09-27T14:17:56;99882.06;;;13.18;82.64
71778;BME280;59609;52.430;4.668;2022-09-27T14:20:41;99870.44;;;13.36;79.70
71778;BME280;59609;52.430;4.668;2022-09-27T14:25:48;99869.56;;;12.88;79.87
71778;BME280;59609;52.430;4.668;2022-09-27T14:30:43;99868.72;;;12.19;82.19
71778;BME280;59609;52.430;4.668;2022-09-27T14:33:27;99858.03;;;11.81;83.39
71778;BME280;59609;52.430;4.668;2022-09-27T14:35:52;99865.19;;;11.76;84.96
71778;BME280;59609;52.430;4.668;2022-09-27T14:38:37;99859.59;;;11.69;84.76
71778;BME280;59609;52.430;4.668;2022-09-27T14:41:04;99858.59;;;11.70;85.93
71778;BME280;59609;52.430;4.668;2022-09-27T14:43:33;99860.16;;;11.65;85.68
71778;BME280;59609;52.430;4.668;2022-09-27T14:46:04;99852.91;;;11.57;87.75
71778;BME280;59609;52.430;4.668;2022-09-27T14:53:49;99862.22;;;11.56;87.87
71778;BME280;59609;52.430;4.668;2022-09-27T14:56:21;99860.50;;;11.55;88.48
71778;BME280;59609;52.430;4.668;2022-09-27T14:58:54;99854.59;;;11.58;87.98
71778;BME280;59609;52.430;4.668;2022-09-27T15:01:26;99852.50;;;11.60;88.84
71778;BME280;59609;52.430;4.668;2022-09-27T15:03:52;99846.78;;;11.62;87.95
71778;BME280;59609;52.430;4.668;2022-09-27T15:06:18;99850.94;;;11.72;87.60
71778;BME280;59609;52.430;4.668;2022-09-27T15:08:45;99847.78;;;11.75;85.67
71778;BME280;59609;52.430;4.668;2022-09-27T15:11:14;99854.34;;;11.74;85.35
71778;BME280;59609;52.430;4.668;2022-09-27T15:13:40;99852.91;;;11.78;85.64
71778;BME280;59609;52.430;4.668;2022-09-27T15:16:07;99849.22;;;11.71;85.70
71778;BME280;59609;52.430;4.668;2022-09-27T15:18:43;99853.78;;;11.64;86.15
71778;BME280;59609;52.430;4.668;2022-09-27T15:21:25;99850.78;;;11.59;83.51
71778;BME280;59609;52.430;4.668;2022-09-27T15:23:51;99841.81;;;11.51;84.03
71778;BME280;59609;52.430;4.668;2022-09-27T15:26:19;99862.50;;;11.40;87.56
71778;BME280;59609;52.430;4.668;2022-09-27T15:28:49;99854.34;;;11.32;88.90
71778;BME280;59609;52.430;4.668;2022-09-27T15:31:17;99896.09;;;11.29;89.90
71778;BME280;59609;52.430;4.668;2022-09-27T15:33:52;99898.56;;;10.88;90.47
71778;BME280;59609;52.430;4.668;2022-09-27T15:39:15;99909.56;;;10.15;95.47
71778;BME280;59609;52.430;4.668;2022-09-27T15:47:46;99901.06;;;9.11;100.00
71778;BME280;59609;52.430;4.668;2022-09-27T15:52:45;99892.41;;;8.91;100.00
71778;BME280;59609;52.430;4.668;2022-09-27T15:55:14;99898.03;;;8.98;100.00
71778;BME280;59609;52.430;4.668;2022-09-27T15:57:42;99897.03;;;8.91;100.00
71778;BME280;59609;52.430;4.668;2022-09-27T16:00:13;99882.16;;;8.85;100.00
71778;BME280;59609;52.430;4.668;2022-09-27T16:02:41;99863.78;;;8.86;100.00
71778;BME280;59609;52.430;4.668;2022-09-27T16:05:07;99857.94;;;8.89;100.00
71778;BME280;59609;52.430;4.668;2022-09-27T16:07:32;99835.97;;;8.89;100.00